Airfield :
LOGIN :

Register | Disclaimer

   EN    FR    IT 

 










Legend :    VFR   Marginal VFR   IFR   Intensive IFR   Very Intensive IFR
Visi :
Ceiling :
>= 8 km
>= 3000ft
5 to 8 km
1000 to 3000 ft
1500m to 5 km
500 to 1000 ft
800 to 1500m
200 to 500 ft
< 800m
< 200 ft
Symbols :   Thunderstorms  Fog  Heavy snow  Heavy precipitations  Wind > 20 kt
SIGMETs :     Misc.  Thunderstorms  Icing  Turbulence  Mountain Waves  Volcanic Ashes






- Airport Elevation : 1455 ft


ETIH - Hohenfels Army Air Field

CURRENT METAR :
  • 181256Z AUTO 08007KT M M SCT050 23/10 A3026 RMK AO2 DZE1158 SLP241 P0000 T02260104 RVRNO $

EXPIRED METARs :
  • 181158Z AUTO 04008KT M M FEW050 23/11 A3027 RMK AO2 DZE58 SLP243 RVRNO $
  • 181155Z AUTO 08006KT M -DZ SCT050 23/10 A3027 RMK AO2 DZB38E47DZB55 SLP243 RVRNO $
  • 181138Z AUTO 08004KT M -DZ CLR 22/10 A3027 RMK AO2 DZB38 SLP243 RVRNO $
  • 181056Z AUTO 08006KT M M SCT039 21/12 A3028 RMK AO2 SLP248 T02120115 RVRNO $

TAF TAF ETIH
Valid from the 18 at 06:00 until the 19 at 12:00 UTC


180600Z 1806/1912 VRB06KT 8000 BR SCT045 QNH3022INS TX22/1912Z TN09/1904Z



MET'MAP, your aeronautical weather chart ! - Copyright ORBIFLY December 2007 - Disclaimer

ORBIFLY MET'MAP TEAM :

Programming & Development : Alexandra Zaïnal
Original concept : Baudouin d'Aumeries
Technical & hardware support : Manuel Goepfert
Assistance : Marc-Olivier Méhu

Contact : metmap@orbifly.com




SOURCES & CREDITS :

   NOAA